sensor_id;sensor_type;location;lat;lon;timestamp;temperature;humidity
37806;DHT22;25082;50.870;0.022;2023-05-07T00:01:43;18.60;72.30
37806;DHT22;25082;50.870;0.022;2023-05-07T00:04:09;18.60;72.30
37806;DHT22;25082;50.870;0.022;2023-05-07T00:06:35;18.60;72.30
37806;DHT22;25082;50.870;0.022;2023-05-07T00:09:01;18.60;72.30
37806;DHT22;25082;50.870;0.022;2023-05-07T00:11:27;18.60;72.30
37806;DHT22;25082;50.870;0.022;2023-05-07T00:13:54;18.60;72.30
37806;DHT22;25082;50.870;0.022;2023-05-07T00:16:19;18.60;72.30
37806;DHT22;25082;50.870;0.022;2023-05-07T00:18:45;18.60;72.30
37806;DHT22;25082;50.870;0.022;2023-05-07T00:21:11;18.60;72.30
37806;DHT22;25082;50.870;0.022;2023-05-07T00:23:37;18.60;72.30
37806;DHT22;25082;50.870;0.022;2023-05-07T00:26:03;18.60;72.30
37806;DHT22;25082;50.870;0.022;2023-05-07T00:28:29;18.60;72.30
37806;DHT22;25082;50.870;0.022;2023-05-07T00:30:55;18.60;72.30
37806;DHT22;25082;50.870;0.022;2023-05-07T00:33:21;18.60;72.20
37806;DHT22;25082;50.870;0.022;2023-05-07T00:35:47;18.60;72.30
37806;DHT22;25082;50.870;0.022;2023-05-07T00:38:13;18.60;72.30
37806;DHT22;25082;50.870;0.022;2023-05-07T00:40:39;18.60;72.30
37806;DHT22;25082;50.870;0.022;2023-05-07T00:43:05;18.60;72.20
37806;DHT22;25082;50.870;0.022;2023-05-07T00:45:33;18.60;72.20
37806;DHT22;25082;50.870;0.022;2023-05-07T00:48:00;18.60;72.20
37806;DHT22;25082;50.870;0.022;2023-05-07T00:50:28;18.50;72.10
37806;DHT22;25082;50.870;0.022;2023-05-07T00:52:55;18.60;72.20
37806;DHT22;25082;50.870;0.022;2023-05-07T00:55:22;18.60;72.20
37806;DHT22;25082;50.870;0.022;2023-05-07T00:57:50;18.60;72.20
37806;DHT22;25082;50.870;0.022;2023-05-07T01:00:16;18.60;72.20
37806;DHT22;25082;50.870;0.022;2023-05-07T01:02:43;18.60;72.20
37806;DHT22;25082;50.870;0.022;2023-05-07T01:05:12;18.50;72.10
37806;DHT22;25082;50.870;0.022;2023-05-07T01:07:40;18.50;72.10
37806;DHT22;25082;50.870;0.022;2023-05-07T01:10:07;18.50;72.10
37806;DHT22;25082;50.870;0.022;2023-05-07T01:12:35;18.50;72.10
37806;DHT22;25082;50.870;0.022;2023-05-07T01:15:02;18.50;72.10
37806;DHT22;25082;50.870;0.022;2023-05-07T01:17:28;18.50;72.10
37806;DHT22;25082;50.870;0.022;2023-05-07T01:19:54;18.50;72.10
37806;DHT22;25082;50.870;0.022;2023-05-07T01:22:39;18.50;72.10
37806;DHT22;25082;50.870;0.022;2023-05-07T01:25:05;18.50;72.00
37806;DHT22;25082;50.870;0.022;2023-05-07T01:27:32;18.50;72.10
37806;DHT22;25082;50.870;0.022;2023-05-07T01:30:03;18.50;72.10
37806;DHT22;25082;50.870;0.022;2023-05-07T01:32:48;18.50;72.10
37806;DHT22;25082;50.870;0.022;2023-05-07T01:35:18;18.50;72.10
37806;DHT22;25082;50.870;0.022;2023-05-07T01:37:46;18.50;72.00
37806;DHT22;25082;50.870;0.022;2023-05-07T01:40:13;18.50;72.00
37806;DHT22;25082;50.870;0.022;2023-05-07T01:42:40;18.50;72.00
37806;DHT22;25082;50.870;0.022;2023-05-07T01:45:07;18.50;72.00
37806;DHT22;25082;50.870;0.022;2023-05-07T01:47:33;18.50;72.00
37806;DHT22;25082;50.870;0.022;2023-05-07T01:50:00;18.50;72.00
37806;DHT22;25082;50.870;0.022;2023-05-07T01:52:27;18.50;72.00
37806;DHT22;25082;50.870;0.022;2023-05-07T01:54:53;18.50;71.90
37806;DHT22;25082;50.870;0.022;2023-05-07T01:57:18;18.50;71.90
37806;DHT22;25082;50.870;0.022;2023-05-07T01:59:44;18.40;71.90
37806;DHT22;25082;50.870;0.022;2023-05-07T02:02:10;18.40;71.80
37806;DHT22;25082;50.870;0.022;2023-05-07T02:04:36;18.50;71.90
37806;DHT22;25082;50.870;0.022;2023-05-07T02:07:02;18.50;71.90
37806;DHT22;25082;50.870;0.022;2023-05-07T02:09:27;18.40;71.80
37806;DHT22;25082;50.870;0.022;2023-05-07T02:11:53;18.40;71.80
37806;DHT22;25082;50.870;0.022;2023-05-07T02:14:19;18.40;71.80
37806;DHT22;25082;50.870;0.022;2023-05-07T02:16:46;18.40;71.80
37806;DHT22;25082;50.870;0.022;2023-05-07T02:19:11;18.40;71.80
37806;DHT22;25082;50.870;0.022;2023-05-07T02:21:37;18.40;71.80
37806;DHT22;25082;50.870;0.022;2023-05-07T02:24:03;18.40;71.80
37806;DHT22;25082;50.870;0.022;2023-05-07T02:26:28;18.40;71.80
37806;DHT22;25082;50.870;0.022;2023-05-07T02:28:54;18.40;71.80
37806;DHT22;25082;50.870;0.022;2023-05-07T02:31:20;18.40;71.80
37806;DHT22;25082;50.870;0.022;2023-05-07T02:33:45;18.40;71.80
37806;DHT22;25082;50.870;0.022;2023-05-07T02:36:12;18.40;71.70
37806;DHT22;25082;50.870;0.022;2023-05-07T02:38:38;18.40;71.80
37806;DHT22;25082;50.870;0.022;2023-05-07T02:41:04;18.40;71.70
37806;DHT22;25082;50.870;0.022;2023-05-07T02:43:30;18.40;71.70
37806;DHT22;25082;50.870;0.022;2023-05-07T02:46:06;18.40;71.70
37806;DHT22;25082;50.870;0.022;2023-05-07T02:48:32;18.40;72.30
37806;DHT22;25082;50.870;0.022;2023-05-07T02:50:58;18.40;71.80
37806;DHT22;25082;50.870;0.022;2023-05-07T02:53:25;18.40;71.70
37806;DHT22;25082;50.870;0.022;2023-05-07T02:55:59;18.40;71.80
37806;DHT22;25082;50.870;0.022;2023-05-07T02:58:25;18.40;71.80
37806;DHT22;25082;50.870;0.022;2023-05-07T03:00:51;18.40;71.80
37806;DHT22;25082;50.870;0.022;2023-05-07T03:03:17;18.30;71.70
37806;DHT22;25082;50.870;0.022;2023-05-07T03:05:43;18.40;71.80
37806;DHT22;25082;50.870;0.022;2023-05-07T03:08:09;18.30;71.70
37806;DHT22;25082;50.870;0.022;2023-05-07T03:10:36;18.30;71.70
37806;DHT22;25082;50.870;0.022;2023-05-07T03:13:02;18.30;71.70
37806;DHT22;25082;50.870;0.022;2023-05-07T03:15:28;18.30;71.70
37806;DHT22;25082;50.870;0.022;2023-05-07T03:17:53;18.30;71.70
37806;DHT22;25082;50.870;0.022;2023-05-07T03:20:19;18.30;71.70
37806;DHT22;25082;50.870;0.022;2023-05-07T03:22:45;18.30;71.60
37806;DHT22;25082;50.870;0.022;2023-05-07T03:25:11;18.30;71.60
37806;DHT22;25082;50.870;0.022;2023-05-07T03:27:37;18.30;71.60
37806;DHT22;25082;50.870;0.022;2023-05-07T03:30:03;18.30;71.70
37806;DHT22;25082;50.870;0.022;2023-05-07T03:32:29;18.30;71.60
37806;DHT22;25082;50.870;0.022;2023-05-07T03:34:55;18.30;71.50
37806;DHT22;25082;50.870;0.022;2023-05-07T03:37:21;18.30;72.20
37806;DHT22;25082;50.870;0.022;2023-05-07T03:39:47;18.30;71.50
37806;DHT22;25082;50.870;0.022;2023-05-07T03:42:13;18.30;71.50
37806;DHT22;25082;50.870;0.022;2023-05-07T03:44:39;18.30;71.50
37806;DHT22;25082;50.870;0.022;2023-05-07T03:47:04;18.30;71.50
37806;DHT22;25082;50.870;0.022;2023-05-07T03:49:31;18.30;71.60
37806;DHT22;25082;50.870;0.022;2023-05-07T03:51:57;18.30;71.50
37806;DHT22;25082;50.870;0.022;2023-05-07T03:54:23;18.30;71.50
37806;DHT22;25082;50.870;0.022;2023-05-07T03:56:48;18.30;71.50
37806;DHT22;25082;50.870;0.022;2023-05-07T03:59:14;18.30;71.50
37806;DHT22;25082;50.870;0.022;2023-05-07T04:01:40;18.30;71.50
37806;DHT22;25082;50.870;0.022;2023-05-07T04:04:06;18.30;71.50
37806;DHT22;25082;50.870;0.022;2023-05-07T04:06:32;18.30;71.50
37806;DHT22;25082;50.870;0.022;2023-05-07T04:08:58;18.30;71.50
37806;DHT22;25082;50.870;0.022;2023-05-07T04:11:23;18.30;71.50
37806;DHT22;25082;50.870;0.022;2023-05-07T04:13:50;18.30;71.50
37806;DHT22;25082;50.870;0.022;2023-05-07T04:16:15;18.30;71.50
37806;DHT22;25082;50.870;0.022;2023-05-07T04:18:41;18.30;71.50
37806;DHT22;25082;50.870;0.022;2023-05-07T04:21:17;18.20;71.40
37806;DHT22;25082;50.870;0.022;2023-05-07T04:23:43;18.30;71.50
37806;DHT22;25082;50.870;0.022;2023-05-07T04:26:09;18.20;71.40
37806;DHT22;25082;50.870;0.022;2023-05-07T04:28:35;18.20;71.40
37806;DHT22;25082;50.870;0.022;2023-05-07T04:31:01;18.20;71.40
37806;DHT22;25082;50.870;0.022;2023-05-07T04:33:27;18.20;71.40
37806;DHT22;25082;50.870;0.022;2023-05-07T04:35:52;18.20;71.40
37806;DHT22;25082;50.870;0.022;2023-05-07T04:38:18;18.20;71.40
37806;DHT22;25082;50.870;0.022;2023-05-07T04:40:44;18.20;71.90
37806;DHT22;25082;50.870;0.022;2023-05-07T04:43:10;18.20;71.50
37806;DHT22;25082;50.870;0.022;2023-05-07T04:45:36;18.20;71.40
37806;DHT22;25082;50.870;0.022;2023-05-07T04:48:02;18.20;71.30
37806;DHT22;25082;50.870;0.022;2023-05-07T04:50:28;18.20;71.30
37806;DHT22;25082;50.870;0.022;2023-05-07T04:52:53;18.20;71.30
37806;DHT22;25082;50.870;0.022;2023-05-07T04:55:19;18.20;71.30
37806;DHT22;25082;50.870;0.022;2023-05-07T04:57:45;18.20;71.30
37806;DHT22;25082;50.870;0.022;2023-05-07T05:00:11;18.20;71.30
37806;DHT22;25082;50.870;0.022;2023-05-07T05:02:40;18.20;71.30
37806;DHT22;25082;50.870;0.022;2023-05-07T05:05:06;18.20;71.30
37806;DHT22;25082;50.870;0.022;2023-05-07T05:07:32;18.20;71.30
37806;DHT22;25082;50.870;0.022;2023-05-07T05:09:58;18.20;71.20
37806;DHT22;25082;50.870;0.022;2023-05-07T05:12:24;18.20;71.20
37806;DHT22;25082;50.870;0.022;2023-05-07T05:14:50;18.20;71.20
37806;DHT22;25082;50.870;0.022;2023-05-07T05:17:15;18.20;71.20
37806;DHT22;25082;50.870;0.022;2023-05-07T05:19:41;18.20;71.20
37806;DHT22;25082;50.870;0.022;2023-05-07T05:22:07;18.20;71.30
37806;DHT22;25082;50.870;0.022;2023-05-07T05:24:33;18.20;71.30
37806;DHT22;25082;50.870;0.022;2023-05-07T05:26:58;18.20;71.20
37806;DHT22;25082;50.870;0.022;2023-05-07T05:29:28;18.20;71.30
37806;DHT22;25082;50.870;0.022;2023-05-07T05:31:53;18.20;71.30
37806;DHT22;25082;50.870;0.022;2023-05-07T05:34:19;18.20;71.20
37806;DHT22;25082;50.870;0.022;2023-05-07T05:36:45;18.10;71.20
37806;DHT22;25082;50.870;0.022;2023-05-07T05:39:11;18.20;71.30
37806;DHT22;25082;50.870;0.022;2023-05-07T05:41:37;18.10;71.30
37806;DHT22;25082;50.870;0.022;2023-05-07T05:44:02;18.20;71.30
37806;DHT22;25082;50.870;0.022;2023-05-07T05:46:28;18.10;71.20
37806;DHT22;25082;50.870;0.022;2023-05-07T05:48:54;18.20;71.30
37806;DHT22;25082;50.870;0.022;2023-05-07T05:51:21;18.10;71.20
37806;DHT22;25082;50.870;0.022;2023-05-07T05:53:46;18.10;71.20
37806;DHT22;25082;50.870;0.022;2023-05-07T05:56:12;18.10;71.20
37806;DHT22;25082;50.870;0.022;2023-05-07T05:58:38;18.10;71.20
37806;DHT22;25082;50.870;0.022;2023-05-07T06:01:03;18.10;71.20
37806;DHT22;25082;50.870;0.022;2023-05-07T06:03:30;18.10;71.20
37806;DHT22;25082;50.870;0.022;2023-05-07T06:05:57;18.10;71.20
37806;DHT22;25082;50.870;0.022;2023-05-07T06:08:23;18.10;71.20
37806;DHT22;25082;50.870;0.022;2023-05-07T06:10:49;18.10;71.20
37806;DHT22;25082;50.870;0.022;2023-05-07T06:13:15;18.10;71.20
37806;DHT22;25082;50.870;0.022;2023-05-07T06:15:41;18.10;71.10
37806;DHT22;25082;50.870;0.022;2023-05-07T06:18:07;18.10;71.20
37806;DHT22;25082;50.870;0.022;2023-05-07T06:20:32;18.10;71.10
37806;DHT22;25082;50.870;0.022;2023-05-07T06:22:58;18.10;71.20
37806;DHT22;25082;50.870;0.022;2023-05-07T06:25:24;18.10;71.20
37806;DHT22;25082;50.870;0.022;2023-05-07T06:27:49;18.20;71.30
37806;DHT22;25082;50.870;0.022;2023-05-07T06:30:15;18.20;71.30
37806;DHT22;25082;50.870;0.022;2023-05-07T06:32:41;18.20;71.30
37806;DHT22;25082;50.870;0.022;2023-05-07T06:35:07;18.20;71.20
37806;DHT22;25082;50.870;0.022;2023-05-07T06:37:33;18.20;71.20
37806;DHT22;25082;50.870;0.022;2023-05-07T06:39:58;18.30;71.20
37806;DHT22;25082;50.870;0.022;2023-05-07T06:42:24;18.30;71.20
37806;DHT22;25082;50.870;0.022;2023-05-07T06:44:50;18.30;71.10
37806;DHT22;25082;50.870;0.022;2023-05-07T06:47:16;18.30;71.10
37806;DHT22;25082;50.870;0.022;2023-05-07T06:49:42;18.30;71.10
37806;DHT22;25082;50.870;0.022;2023-05-07T06:52:07;18.40;71.10
37806;DHT22;25082;50.870;0.022;2023-05-07T06:54:33;18.40;71.10
37806;DHT22;25082;50.870;0.022;2023-05-07T06:56:59;18.40;71.10
37806;DHT22;25082;50.870;0.022;2023-05-07T06:59:24;18.40;71.10
37806;DHT22;25082;50.870;0.022;2023-05-07T07:01:50;18.40;71.10
37806;DHT22;25082;50.870;0.022;2023-05-07T07:04:16;18.40;71.20
37806;DHT22;25082;50.870;0.022;2023-05-07T07:06:43;18.40;71.20
37806;DHT22;25082;50.870;0.022;2023-05-07T07:09:09;18.40;71.20
37806;DHT22;25082;50.870;0.022;2023-05-07T07:11:35;18.40;71.40
37806;DHT22;25082;50.870;0.022;2023-05-07T07:14:00;18.40;71.40
37806;DHT22;25082;50.870;0.022;2023-05-07T07:16:26;18.50;71.70
37806;DHT22;25082;50.870;0.022;2023-05-07T07:18:52;18.50;71.90
37806;DHT22;25082;50.870;0.022;2023-05-07T07:21:18;18.50;72.10
37806;DHT22;25082;50.870;0.022;2023-05-07T07:23:43;18.50;72.20
37806;DHT22;25082;50.870;0.022;2023-05-07T07:26:09;18.50;72.20
37806;DHT22;25082;50.870;0.022;2023-05-07T07:28:35;18.50;72.30
37806;DHT22;25082;50.870;0.022;2023-05-07T07:31:00;18.50;72.30
37806;DHT22;25082;50.870;0.022;2023-05-07T07:33:26;18.60;72.50
37806;DHT22;25082;50.870;0.022;2023-05-07T07:35:52;18.60;72.50
37806;DHT22;25082;50.870;0.022;2023-05-07T07:38:18;18.60;72.50
37806;DHT22;25082;50.870;0.022;2023-05-07T07:40:43;18.60;72.60
37806;DHT22;25082;50.870;0.022;2023-05-07T07:43:09;18.60;72.60
37806;DHT22;25082;50.870;0.022;2023-05-07T07:45:35;18.60;72.70
37806;DHT22;25082;50.870;0.022;2023-05-07T07:48:01;18.60;72.60
37806;DHT22;25082;50.870;0.022;2023-05-07T07:50:27;18.60;72.60
37806;DHT22;25082;50.870;0.022;2023-05-07T07:52:52;18.60;72.60
37806;DHT22;25082;50.870;0.022;2023-05-07T07:55:20;18.60;72.60
37806;DHT22;25082;50.870;0.022;2023-05-07T07:57:51;18.70;72.70
37806;DHT22;25082;50.870;0.022;2023-05-07T08:00:17;18.70;72.70
37806;DHT22;25082;50.870;0.022;2023-05-07T08:02:42;18.70;72.70
37806;DHT22;25082;50.870;0.022;2023-05-07T08:05:08;18.70;72.70
37806;DHT22;25082;50.870;0.022;2023-05-07T08:07:34;18.70;72.70
37806;DHT22;25082;50.870;0.022;2023-05-07T08:10:00;18.70;72.70
37806;DHT22;25082;50.870;0.022;2023-05-07T08:12:25;18.70;72.60
37806;DHT22;25082;50.870;0.022;2023-05-07T08:14:51;18.70;72.60
37806;DHT22;25082;50.870;0.022;2023-05-07T08:17:17;18.70;72.70
37806;DHT22;25082;50.870;0.022;2023-05-07T08:19:43;18.70;72.70
37806;DHT22;25082;50.870;0.022;2023-05-07T08:22:09;18.80;72.90
37806;DHT22;25082;50.870;0.022;2023-05-07T08:24:36;18.80;73.00
37806;DHT22;25082;50.870;0.022;2023-05-07T08:27:01;18.80;72.90
37806;DHT22;25082;50.870;0.022;2023-05-07T08:29:27;18.80;73.00
37806;DHT22;25082;50.870;0.022;2023-05-07T08:31:53;18.80;72.90
37806;DHT22;25082;50.870;0.022;2023-05-07T08:34:19;18.80;72.90
37806;DHT22;25082;50.870;0.022;2023-05-07T08:36:45;18.80;72.90
37806;DHT22;25082;50.870;0.022;2023-05-07T08:39:15;18.80;72.90
37806;DHT22;25082;50.870;0.022;2023-05-07T08:41:46;18.80;72.90
37806;DHT22;25082;50.870;0.022;2023-05-07T08:44:13;18.80;72.80
37806;DHT22;25082;50.870;0.022;2023-05-07T08:46:41;18.90;72.90
37806;DHT22;25082;50.870;0.022;2023-05-07T08:49:07;18.90;73.00
37806;DHT22;25082;50.870;0.022;2023-05-07T08:51:33;18.90;72.30
37806;DHT22;25082;50.870;0.022;2023-05-07T08:53:59;18.80;72.40
37806;DHT22;25082;50.870;0.022;2023-05-07T08:56:26;18.80;72.60
37806;DHT22;25082;50.870;0.022;2023-05-07T08:58:52;18.80;72.60
37806;DHT22;25082;50.870;0.022;2023-05-07T09:01:22;18.80;72.60
37806;DHT22;25082;50.870;0.022;2023-05-07T09:03:49;18.80;72.60
37806;DHT22;25082;50.870;0.022;2023-05-07T09:06:15;18.80;72.60
37806;DHT22;25082;50.870;0.022;2023-05-07T09:08:43;18.90;72.70
37806;DHT22;25082;50.870;0.022;2023-05-07T09:11:09;18.90;72.70
37806;DHT22;25082;50.870;0.022;2023-05-07T09:13:35;18.90;72.60
37806;DHT22;25082;50.870;0.022;2023-05-07T09:16:12;18.90;72.60
37806;DHT22;25082;50.870;0.022;2023-05-07T09:18:44;18.90;72.60
37806;DHT22;25082;50.870;0.022;2023-05-07T09:21:20;18.90;72.60
37806;DHT22;25082;50.870;0.022;2023-05-07T09:23:50;18.90;72.50
37806;DHT22;25082;50.870;0.022;2023-05-07T09:26:16;18.90;72.50
37806;DHT22;25082;50.870;0.022;2023-05-07T09:28:42;18.90;72.50
37806;DHT22;25082;50.870;0.022;2023-05-07T09:31:11;18.90;72.50
37806;DHT22;25082;50.870;0.022;2023-05-07T09:33:37;18.90;72.50
37806;DHT22;25082;50.870;0.022;2023-05-07T09:36:07;18.90;72.40
37806;DHT22;25082;50.870;0.022;2023-05-07T09:38:35;18.90;72.40
37806;DHT22;25082;50.870;0.022;2023-05-07T09:41:07;18.90;72.40
37806;DHT22;25082;50.870;0.022;2023-05-07T09:43:36;19.00;72.40
37806;DHT22;25082;50.870;0.022;2023-05-07T09:46:07;19.00;72.30
37806;DHT22;25082;50.870;0.022;2023-05-07T09:48:41;19.00;72.30
37806;DHT22;25082;50.870;0.022;2023-05-07T09:51:29;19.00;72.30
37806;DHT22;25082;50.870;0.022;2023-05-07T09:53:57;19.00;72.30
37806;DHT22;25082;50.870;0.022;2023-05-07T09:56:24;19.00;72.30
37806;DHT22;25082;50.870;0.022;2023-05-07T09:58:52;19.00;72.30
37806;DHT22;25082;50.870;0.022;2023-05-07T10:01:19;19.00;72.30
37806;DHT22;25082;50.870;0.022;2023-05-07T10:03:48;19.00;72.30
37806;DHT22;25082;50.870;0.022;2023-05-07T10:06:15;19.00;72.30
37806;DHT22;25082;50.870;0.022;2023-05-07T10:08:43;19.00;72.40
37806;DHT22;25082;50.870;0.022;2023-05-07T10:11:09;19.00;72.40
37806;DHT22;25082;50.870;0.022;2023-05-07T10:13:35;19.10;72.50
37806;DHT22;25082;50.870;0.022;2023-05-07T10:16:05;19.00;72.50
37806;DHT22;25082;50.870;0.022;2023-05-07T10:18:32;19.00;72.50
37806;DHT22;25082;50.870;0.022;2023-05-07T10:21:08;19.00;72.50
37806;DHT22;25082;50.870;0.022;2023-05-07T10:23:36;19.00;72.50
37806;DHT22;25082;50.870;0.022;2023-05-07T10:26:06;19.00;72.50
37806;DHT22;25082;50.870;0.022;2023-05-07T10:28:37;19.00;72.50
37806;DHT22;25082;50.870;0.022;2023-05-07T10:31:14;19.00;72.40
37806;DHT22;25082;50.870;0.022;2023-05-07T10:33:42;19.00;72.40
37806;DHT22;25082;50.870;0.022;2023-05-07T10:36:09;19.00;72.40
37806;DHT22;25082;50.870;0.022;2023-05-07T10:38:36;19.00;72.40
37806;DHT22;25082;50.870;0.022;2023-05-07T10:41:02;19.00;72.40
37806;DHT22;25082;50.870;0.022;2023-05-07T10:43:41;19.00;72.30
37806;DHT22;25082;50.870;0.022;2023-05-07T10:51:30;19.00;72.30
37806;DHT22;25082;50.870;0.022;2023-05-07T10:56:38;19.00;72.40
37806;DHT22;25082;50.870;0.022;2023-05-07T11:02:00;19.00;72.40
37806;DHT22;25082;50.870;0.022;2023-05-07T11:04:28;19.00;72.00
37806;DHT22;25082;50.870;0.022;2023-05-07T11:15:07;18.80;72.20
37806;DHT22;25082;50.870;0.022;2023-05-07T11:17:34;18.80;72.60
37806;DHT22;25082;50.870;0.022;2023-05-07T11:20:01;18.80;73.00
37806;DHT22;25082;50.870;0.022;2023-05-07T11:25:02;18.90;73.20
37806;DHT22;25082;50.870;0.022;2023-05-07T11:27:28;18.90;73.10
37806;DHT22;25082;50.870;0.022;2023-05-07T11:29:55;19.00;73.10
37806;DHT22;25082;50.870;0.022;2023-05-07T11:32:29;19.00;73.10
37806;DHT22;25082;50.870;0.022;2023-05-07T11:34:56;19.00;73.20
37806;DHT22;25082;50.870;0.022;2023-05-07T11:37:23;19.00;73.30
37806;DHT22;25082;50.870;0.022;2023-05-07T11:39:50;19.00;73.90
37806;DHT22;25082;50.870;0.022;2023-05-07T11:42:32;19.10;73.30
37806;DHT22;25082;50.870;0.022;2023-05-07T11:44:58;19.00;73.20
37806;DHT22;25082;50.870;0.022;2023-05-07T11:47:24;19.10;73.20
37806;DHT22;25082;50.870;0.022;2023-05-07T11:49:53;19.10;73.20
37806;DHT22;25082;50.870;0.022;2023-05-07T11:52:21;19.10;73.20
37806;DHT22;25082;50.870;0.022;2023-05-07T11:54:54;19.10;73.30
37806;DHT22;25082;50.870;0.022;2023-05-07T11:57:21;19.10;73.30
37806;DHT22;25082;50.870;0.022;2023-05-07T11:59:47;19.10;73.30
37806;DHT22;25082;50.870;0.022;2023-05-07T12:02:17;19.10;73.30
37806;DHT22;25082;50.870;0.022;2023-05-07T12:04:43;19.10;73.40
37806;DHT22;25082;50.870;0.022;2023-05-07T12:07:12;19.10;73.50
37806;DHT22;25082;50.870;0.022;2023-05-07T12:09:41;19.10;73.50
37806;DHT22;25082;50.870;0.022;2023-05-07T12:12:08;19.10;73.50
37806;DHT22;25082;50.870;0.022;2023-05-07T12:14:38;19.10;73.50
37806;DHT22;25082;50.870;0.022;2023-05-07T12:17:05;19.10;73.80
37806;DHT22;25082;50.870;0.022;2023-05-07T12:19:31;19.10;73.90
37806;DHT22;25082;50.870;0.022;2023-05-07T12:21:57;19.10;74.10
37806;DHT22;25082;50.870;0.022;2023-05-07T12:24:23;19.10;74.10
37806;DHT22;25082;50.870;0.022;2023-05-07T12:26:49;19.10;74.20
37806;DHT22;25082;50.870;0.022;2023-05-07T12:29:15;19.10;74.20
37806;DHT22;25082;50.870;0.022;2023-05-07T12:31:43;19.10;74.20
37806;DHT22;25082;50.870;0.022;2023-05-07T12:34:11;19.10;74.20
37806;DHT22;25082;50.870;0.022;2023-05-07T12:36:38;19.10;74.10
37806;DHT22;25082;50.870;0.022;2023-05-07T12:39:06;19.10;73.60
37806;DHT22;25082;50.870;0.022;2023-05-07T12:41:36;19.10;74.30
37806;DHT22;25082;50.870;0.022;2023-05-07T12:44:17;19.10;73.80
37806;DHT22;25082;50.870;0.022;2023-05-07T12:46:42;19.10;73.90
37806;DHT22;25082;50.870;0.022;2023-05-07T12:49:08;19.10;74.00
37806;DHT22;25082;50.870;0.022;2023-05-07T12:51:35;19.10;73.80
37806;DHT22;25082;50.870;0.022;2023-05-07T12:54:01;19.10;73.90
37806;DHT22;25082;50.870;0.022;2023-05-07T12:56:26;19.10;73.90
37806;DHT22;25082;50.870;0.022;2023-05-07T12:58:57;19.10;73.90
37806;DHT22;25082;50.870;0.022;2023-05-07T13:01:29;19.10;74.00
37806;DHT22;25082;50.870;0.022;2023-05-07T13:03:55;19.20;74.00
37806;DHT22;25082;50.870;0.022;2023-05-07T13:06:21;19.20;74.00
37806;DHT22;25082;50.870;0.022;2023-05-07T13:08:46;19.20;74.00
37806;DHT22;25082;50.870;0.022;2023-05-07T13:11:12;19.20;74.00
37806;DHT22;25082;50.870;0.022;2023-05-07T13:13:40;19.20;74.00
37806;DHT22;25082;50.870;0.022;2023-05-07T13:16:07;19.20;74.50
37806;DHT22;25082;50.870;0.022;2023-05-07T13:18:34;19.20;73.70
37806;DHT22;25082;50.870;0.022;2023-05-07T13:21:01;19.20;73.50
37806;DHT22;25082;50.870;0.022;2023-05-07T13:23:27;19.20;73.40
37806;DHT22;25082;50.870;0.022;2023-05-07T13:25:53;19.20;73.30
37806;DHT22;25082;50.870;0.022;2023-05-07T13:28:20;19.20;73.20
37806;DHT22;25082;50.870;0.022;2023-05-07T13:30:46;19.20;73.30
37806;DHT22;25082;50.870;0.022;2023-05-07T13:33:12;19.20;73.50
37806;DHT22;25082;50.870;0.022;2023-05-07T13:35:37;19.20;73.50
37806;DHT22;25082;50.870;0.022;2023-05-07T13:38:04;19.20;73.60
37806;DHT22;25082;50.870;0.022;2023-05-07T13:40:30;19.20;73.70
37806;DHT22;25082;50.870;0.022;2023-05-07T13:42:57;19.20;73.80
37806;DHT22;25082;50.870;0.022;2023-05-07T13:45:24;19.20;73.80
37806;DHT22;25082;50.870;0.022;2023-05-07T13:47:54;19.20;73.90
37806;DHT22;25082;50.870;0.022;2023-05-07T13:50:20;19.20;73.90
37806;DHT22;25082;50.870;0.022;2023-05-07T13:52:46;19.20;74.50
37806;DHT22;25082;50.870;0.022;2023-05-07T13:55:23;19.20;73.90
37806;DHT22;25082;50.870;0.022;2023-05-07T13:57:55;19.20;73.90
37806;DHT22;25082;50.870;0.022;2023-05-07T14:00:22;19.30;73.70
37806;DHT22;25082;50.870;0.022;2023-05-07T14:02:48;19.30;73.50
37806;DHT22;25082;50.870;0.022;2023-05-07T14:05:14;19.30;73.60
37806;DHT22;25082;50.870;0.022;2023-05-07T14:07:40;19.30;73.80
37806;DHT22;25082;50.870;0.022;2023-05-07T14:10:06;19.20;74.40
37806;DHT22;25082;50.870;0.022;2023-05-07T14:12:32;19.30;75.00
37806;DHT22;25082;50.870;0.022;2023-05-07T14:14:58;19.30;75.50
37806;DHT22;25082;50.870;0.022;2023-05-07T14:17:25;19.30;75.60
37806;DHT22;25082;50.870;0.022;2023-05-07T14:19:52;19.30;75.60
37806;DHT22;25082;50.870;0.022;2023-05-07T14:22:20;19.30;75.80
37806;DHT22;25082;50.870;0.022;2023-05-07T14:24:47;19.30;75.80
37806;DHT22;25082;50.870;0.022;2023-05-07T14:27:13;19.30;75.80
37806;DHT22;25082;50.870;0.022;2023-05-07T14:29:38;19.30;75.70
37806;DHT22;25082;50.870;0.022;2023-05-07T14:32:04;19.30;75.70
37806;DHT22;25082;50.870;0.022;2023-05-07T14:34:31;19.30;75.40
37806;DHT22;25082;50.870;0.022;2023-05-07T14:36:57;19.30;75.40
37806;DHT22;25082;50.870;0.022;2023-05-07T14:39:23;19.30;75.40
37806;DHT22;25082;50.870;0.022;2023-05-07T14:41:48;19.30;75.30
37806;DHT22;25082;50.870;0.022;2023-05-07T14:44:14;19.30;75.10
37806;DHT22;25082;50.870;0.022;2023-05-07T14:46:40;19.30;75.20
37806;DHT22;25082;50.870;0.022;2023-05-07T14:49:06;19.40;75.20
37806;DHT22;25082;50.870;0.022;2023-05-07T14:51:32;19.40;75.10
37806;DHT22;25082;50.870;0.022;2023-05-07T14:53:58;19.40;75.00
37806;DHT22;25082;50.870;0.022;2023-05-07T14:56:24;19.40;74.90
37806;DHT22;25082;50.870;0.022;2023-05-07T14:58:50;19.40;74.80
37806;DHT22;25082;50.870;0.022;2023-05-07T15:01:16;19.40;74.80
37806;DHT22;25082;50.870;0.022;2023-05-07T15:03:42;19.40;74.80
37806;DHT22;25082;50.870;0.022;2023-05-07T15:06:07;19.40;74.90
37806;DHT22;25082;50.870;0.022;2023-05-07T15:08:33;19.40;74.90
37806;DHT22;25082;50.870;0.022;2023-05-07T15:10:59;19.40;74.80
37806;DHT22;25082;50.870;0.022;2023-05-07T15:13:25;19.40;74.70
37806;DHT22;25082;50.870;0.022;2023-05-07T15:15:51;19.40;74.70
37806;DHT22;25082;50.870;0.022;2023-05-07T15:18:16;19.40;74.60
37806;DHT22;25082;50.870;0.022;2023-05-07T15:20:42;19.40;74.60
37806;DHT22;25082;50.870;0.022;2023-05-07T15:23:08;19.40;74.60
37806;DHT22;25082;50.870;0.022;2023-05-07T15:25:40;19.40;74.60
37806;DHT22;25082;50.870;0.022;2023-05-07T15:28:06;19.40;74.50
37806;DHT22;25082;50.870;0.022;2023-05-07T15:30:32;19.40;74.70
37806;DHT22;25082;50.870;0.022;2023-05-07T15:32:58;19.40;74.60
37806;DHT22;25082;50.870;0.022;2023-05-07T15:35:25;19.50;74.70
37806;DHT22;25082;50.870;0.022;2023-05-07T15:37:51;19.50;74.70
37806;DHT22;25082;50.870;0.022;2023-05-07T15:40:18;19.50;75.30
37806;DHT22;25082;50.870;0.022;2023-05-07T15:42:47;19.50;74.70
37806;DHT22;25082;50.870;0.022;2023-05-07T15:45:13;19.50;74.60
37806;DHT22;25082;50.870;0.022;2023-05-07T15:47:38;19.50;74.60
37806;DHT22;25082;50.870;0.022;2023-05-07T15:50:05;19.50;74.60